Station History

Weather Underground - logo

Station Historical Data
Daily Summary for October 16, 2017 Units:  English    Metric   Both
« Previous Day
Next Day »
Daily Weekly Monthly Yearly Custom
  High: Low: Average:
Temperature: 82.9 °F 46.2 °F 62.9 °F
Dew Point: 51.4 °F 42.3 °F 46.8 °F
Humidity: 88 % 27 % 60 %
Wind Speed: 3.5 mph 0.0 mph 0.6 mph
Wind Gust: 3.5 mph - -
Wind:- - WSW
Pressure: 30.17 in 30.02 in -
Precipitation: 0.00 in    
Historical Graphs
 
 
Tabular Data for October 16, 2017
Time Temperature Dew Point Pressure Wind Wind Speed Wind Gust Humidity Rainfall Rate (Hourly)
00:00 52.8 °F 47.5 °F 30.12 in Calm     82 % 0.00 in
00:05 52.0 °F 46.7 °F 30.12 in Calm     82 % 0.00 in
00:10 51.6 °F 46.6 °F 30.12 in Calm     83 % 0.00 in
00:15 51.5 °F 46.8 °F 30.12 in Calm     84 % 0.00 in
00:20 51.6 °F 46.9 °F 30.12 in Calm     84 % 0.00 in
00:25 51.6 °F 46.6 °F 30.12 in Calm     83 % 0.00 in
00:30 51.8 °F 46.2 °F 30.12 in Calm     81 % 0.00 in
00:35 52.4 °F 46.1 °F 30.12 in Calm     79 % 0.00 in
00:40 52.5 °F 46.2 °F 30.12 in Calm     79 % 0.00 in
00:45 52.7 °F 47.0 °F 30.12 in Calm     81 % 0.00 in
00:50 52.6 °F 46.9 °F 30.12 in Calm     81 % 0.00 in
00:55 52.3 °F 46.6 °F 30.12 in Calm     81 % 0.00 in
01:00 51.8 °F 46.2 °F 30.12 in Calm     81 % 0.00 in
01:05 51.5 °F 46.5 °F 30.12 in Calm     83 % 0.00 in
01:10 51.3 °F 46.3 °F 30.12 in Calm     83 % 0.00 in
01:15 51.2 °F 46.5 °F 30.12 in North 1.2 mph 1.2 mph 84 % 0.00 in
01:20 50.9 °F 46.2 °F 30.12 in Calm     84 % 0.00 in
01:25 50.6 °F 46.3 °F 30.12 in Calm     85 % 0.00 in
01:30 50.5 °F 46.5 °F 30.12 in Calm     86 % 0.00 in
01:35 50.5 °F 46.5 °F 30.12 in Calm     86 % 0.00 in
01:40 50.4 °F 46.1 °F 30.13 in Calm     85 % 0.00 in
01:45 50.3 °F 46.0 °F 30.13 in Calm     85 % 0.00 in
01:50 50.2 °F 46.2 °F 30.13 in Calm     86 % 0.00 in
01:55 50.2 °F 46.5 °F 30.13 in Calm     87 % 0.00 in
02:00 50.4 °F 46.4 °F 30.13 in Calm     86 % 0.00 in
02:05 50.9 °F 45.9 °F 30.13 in Calm     83 % 0.00 in
02:10 51.1 °F 45.8 °F 30.13 in Calm     82 % 0.00 in
02:15 51.3 °F 45.7 °F 30.13 in Calm     81 % 0.00 in
02:20 51.7 °F 45.4 °F 30.13 in Calm     79 % 0.00 in
02:25 51.8 °F 45.5 °F 30.12 in Calm     79 % 0.00 in
02:30 51.6 °F 45.0 °F 30.13 in Calm     78 % 0.00 in
02:35 51.4 °F 44.8 °F 30.13 in Calm     78 % 0.00 in
02:40 51.3 °F 44.7 °F 30.13 in Calm     78 % 0.00 in
02:42 51.3 °F 45.3 °F 30.13 in Calm     80 % 0.00 in
02:47 51.1 °F 45.5 °F 30.13 in Calm     81 % 0.00 in
02:52 50.8 °F 45.5 °F 30.13 in Calm     82 % 0.00 in
02:57 50.4 °F 44.8 °F 30.12 in Calm     81 % 0.00 in
03:02 50.7 °F 44.4 °F 30.12 in Calm     79 % 0.00 in
03:07 50.9 °F 44.6 °F 30.12 in Calm     79 % 0.00 in
03:12 50.8 °F 44.9 °F 30.12 in Calm     80 % 0.00 in
03:17 50.6 °F 44.7 °F 30.12 in Calm     80 % 0.00 in
03:22 50.4 °F 44.5 °F 30.12 in Calm     80 % 0.00 in
03:27 50.4 °F 44.5 °F 30.12 in Calm     80 % 0.00 in
03:32 50.8 °F 44.9 °F 30.11 in Calm     80 % 0.00 in
03:37 51.0 °F 44.7 °F 30.11 in Calm     79 % 0.00 in
03:42 51.3 °F 45.0 °F 30.11 in Calm     79 % 0.00 in
03:47 51.4 °F 44.8 °F 30.11 in Calm     78 % 0.00 in
03:52 51.5 °F 44.9 °F 30.11 in Calm     78 % 0.00 in
03:57 51.5 °F 44.5 °F 30.11 in Calm     77 % 0.00 in
04:02 51.3 °F 44.3 °F 30.11 in Calm     77 % 0.00 in
04:07 51.1 °F 44.1 °F 30.11 in Calm     77 % 0.00 in
04:12 51.2 °F 44.2 °F 30.11 in Calm     77 % 0.00 in
04:17 51.0 °F 44.7 °F 30.11 in Calm     79 % 0.00 in
04:22 50.8 °F 44.9 °F 30.11 in Calm     80 % 0.00 in
04:27 50.6 °F 44.7 °F 30.11 in Calm     80 % 0.00 in
04:32 50.4 °F 44.8 °F 30.11 in Calm     81 % 0.00 in
04:37 50.0 °F 44.4 °F 30.11 in Calm     81 % 0.00 in
04:42 49.3 °F 44.0 °F 30.11 in Calm     82 % 0.00 in
04:47 48.9 °F 44.0 °F 30.11 in Calm     83 % 0.00 in
04:52 48.7 °F 44.1 °F 30.11 in Calm     84 % 0.00 in
04:57 48.4 °F 44.1 °F 30.11 in Calm     85 % 0.00 in
05:02 48.3 °F 44.0 °F 30.11 in Calm     85 % 0.00 in
05:07 48.1 °F 43.8 °F 30.12 in Calm     85 % 0.00 in
05:12 48.1 °F 43.8 °F 30.12 in Calm     85 % 0.00 in
05:17 48.2 °F 43.6 °F 30.12 in Calm     84 % 0.00 in
05:22 48.2 °F 43.6 °F 30.12 in Calm     84 % 0.00 in
05:27 48.1 °F 43.5 °F 30.12 in Calm     84 % 0.00 in
05:32 48.0 °F 43.4 °F 30.12 in Calm     84 % 0.00 in
05:37 48.0 °F 43.7 °F 30.13 in Calm     85 % 0.00 in
05:42 48.1 °F 43.5 °F 30.13 in Calm     84 % 0.00 in
05:47 48.5 °F 43.6 °F 30.13 in Calm     83 % 0.00 in
05:52 48.4 °F 43.5 °F 30.13 in Calm     83 % 0.00 in
05:57 48.3 °F 43.7 °F 30.13 in Calm     84 % 0.00 in
06:02 48.3 °F 43.4 °F 30.13 in Calm     83 % 0.00 in
06:07 48.3 °F 43.4 °F 30.13 in Calm     83 % 0.00 in
06:12 48.2 °F 43.3 °F 30.13 in Calm     83 % 0.00 in
06:17 48.0 °F 43.4 °F 30.14 in Calm     84 % 0.00 in
06:22 47.7 °F 43.1 °F 30.14 in Calm     84 % 0.00 in
06:27 47.5 °F 42.9 °F 30.14 in Calm     84 % 0.00 in
06:32 47.3 °F 43.0 °F 30.14 in Calm     85 % 0.00 in
06:37 47.3 °F 43.3 °F 30.13 in Calm     86 % 0.00 in
06:42 47.1 °F 42.8 °F 30.14 in Calm     85 % 0.00 in
06:47 46.9 °F 42.9 °F 30.14 in Calm     86 % 0.00 in
06:52 46.7 °F 42.7 °F 30.14 in Calm     86 % 0.00 in
06:57 46.5 °F 42.8 °F 30.14 in Calm     87 % 0.00 in
06:58 46.5 °F 42.8 °F 30.14 in Calm     87 % 0.00 in
07:03 46.5 °F 43.1 °F 30.14 in Calm     88 % 0.00 in
07:08 46.3 °F 42.6 °F 30.14 in Calm     87 % 0.00 in
07:13 46.2 °F 42.5 °F 30.14 in Calm     87 % 0.00 in
07:18 46.2 °F 42.8 °F 30.14 in Calm     88 % 0.00 in
07:21 46.3 °F 42.9 °F 30.14 in Calm     88 % 0.00 in
07:26 46.4 °F 42.7 °F 30.14 in Calm     87 % 0.00 in
07:31 46.9 °F 42.6 °F 30.14 in Calm     85 % 0.00 in
07:36 47.9 °F 42.3 °F 30.14 in Calm     81 % 0.00 in
07:41 48.7 °F 43.5 °F 30.15 in Calm     82 % 0.00 in
07:46 48.9 °F 43.3 °F 30.15 in Calm     81 % 0.00 in
07:51 49.2 °F 42.3 °F 30.15 in Calm     77 % 0.00 in
07:56 49.5 °F 43.3 °F 30.15 in Calm     79 % 0.00 in
08:01 49.7 °F 42.8 °F 30.15 in Calm     77 % 0.00 in
08:06 50.1 °F 42.8 °F 30.15 in North 2.3 mph 2.3 mph 76 % 0.00 in
08:11 50.6 °F 43.7 °F 30.15 in Calm     77 % 0.00 in
08:16 51.3 °F 44.0 °F 30.16 in Calm     76 % 0.00 in
08:21 51.8 °F 44.5 °F 30.16 in Calm     76 % 0.00 in
08:26 52.5 °F 44.8 °F 30.16 in Calm     75 % 0.00 in
08:31 53.6 °F 45.2 °F 30.16 in Calm     73 % 0.00 in
08:36 54.7 °F 45.8 °F 30.17 in Calm     72 % 0.00 in
08:41 56.0 °F 46.0 °F 30.17 in ESE 1.2 mph 1.2 mph 69 % 0.00 in
08:46 56.8 °F 45.2 °F 30.17 in SE 1.2 mph 1.2 mph 65 % 0.00 in
08:51 57.8 °F 44.9 °F 30.17 in Calm   0.1 mph 62 % 0.00 in
08:56 58.8 °F 44.5 °F 30.17 in ESE 3.5 mph 3.5 mph 59 % 0.00 in
09:01 59.8 °F 45.0 °F 30.17 in South 2.3 mph 2.3 mph 58 % 0.00 in
09:06 60.8 °F 45.0 °F 30.17 in East 2.0 mph 2.0 mph 56 % 0.00 in
09:11 61.4 °F 45.1 °F 30.17 in SE 3.5 mph 3.5 mph 55 % 0.00 in
09:16 62.0 °F 44.7 °F 30.17 in SE 2.3 mph 2.3 mph 53 % 0.00 in
09:17 62.0 °F 44.7 °F 30.17 in SE 3.5 mph 3.5 mph 53 % 0.00 in
09:22 62.8 °F 45.4 °F 30.17 in SE 2.3 mph 2.3 mph 53 % 0.00 in
09:27 63.5 °F 46.1 °F 30.17 in SSE 1.2 mph   53 % 0.00 in
09:32 64.3 °F 46.8 °F 30.17 in South 1.2 mph 1.2 mph 53 % 0.00 in
09:37 65.1 °F 46.0 °F 30.17 in SE 1.2 mph 1.2 mph 50 % 0.00 in
09:42 65.6 °F 45.9 °F 30.17 in ESE 1.2 mph 1.2 mph 49 % 0.00 in
09:47 66.3 °F 47.1 °F 30.17 in SSE 1.2 mph 1.2 mph 50 % 0.00 in
09:52 67.0 °F 46.1 °F 30.17 in SE 1.2 mph   47 % 0.00 in
09:57 67.5 °F 45.4 °F 30.17 in SSE 1.2 mph 1.2 mph 45 % 0.00 in
10:02 68.0 °F 46.4 °F 30.17 in South 1.0 mph 1.0 mph 46 % 0.00 in
10:07 68.6 °F 45.8 °F 30.17 in SSE 1.2 mph 1.2 mph 44 % 0.00 in
10:12 69.1 °F 45.7 °F 30.17 in East 2.3 mph 2.3 mph 43 % 0.00 in
10:17 69.7 °F 47.4 °F 30.17 in Calm     45 % 0.00 in
10:22 70.2 °F 46.6 °F 30.16 in SSE 2.3 mph 2.3 mph 43 % 0.00 in
10:27 70.6 °F 47.6 °F 30.16 in Calm     44 % 0.00 in
10:28 70.7 °F 47.7 °F 30.16 in North 1.2 mph 1.2 mph 44 % 0.00 in
10:33 70.4 °F 47.4 °F 30.16 in NW 1.2 mph 1.2 mph 44 % 0.00 in
10:38 70.8 °F 47.2 °F 30.16 in WNW 1.2 mph   43 % 0.00 in
10:43 71.3 °F 47.6 °F 30.16 in ESE 3.5 mph 3.5 mph 43 % 0.00 in
10:49 71.9 °F 49.4 °F 30.16 in West 1.2 mph   45 % 0.00 in
10:54 72.2 °F 49.1 °F 30.16 in West 1.2 mph   44 % 0.00 in
10:59 72.8 °F 49.0 °F 30.15 in ENE 1.2 mph 1.2 mph 43 % 0.00 in
11:04 73.3 °F 49.4 °F 30.15 in South 2.3 mph 2.3 mph 43 % 0.00 in
11:06 73.4 °F 50.2 °F 30.15 in SSW 1.2 mph 1.2 mph 44 % 0.00 in
11:11 73.7 °F 50.4 °F 30.15 in NE 2.0 mph 2.0 mph 44 % 0.00 in
11:16 73.9 °F 48.7 °F 30.15 in NE 2.3 mph 2.3 mph 41 % 0.00 in
11:21 74.1 °F 49.5 °F 30.15 in North 2.3 mph 2.3 mph 42 % 0.00 in
11:26 74.6 °F 48.7 °F 30.15 in NNW 3.5 mph 3.5 mph 40 % 0.00 in
11:31 74.7 °F 50.1 °F 30.15 in NNW 1.2 mph 1.2 mph 42 % 0.00 in
11:36 75.4 °F 49.4 °F 30.15 in SE 1.2 mph 1.2 mph 40 % 0.00 in
11:41 75.9 °F 49.2 °F 30.14 in SE 1.2 mph 1.2 mph 39 % 0.00 in
11:46 76.4 °F 47.5 °F 30.14 in NNW 2.3 mph 2.3 mph 36 % 0.00 in
11:51 76.2 °F 48.0 °F 30.14 in WNW 2.3 mph 2.3 mph 37 % 0.00 in
11:56 76.2 °F 48.7 °F 30.13 in WNW 2.3 mph   38 % 0.00 in
12:01 76.4 °F 48.9 °F 30.13 in West 1.2 mph 1.2 mph 38 % 0.00 in
12:06 76.9 °F 47.9 °F 30.13 in South 1.2 mph 1.2 mph 36 % 0.00 in
12:16 77.0 °F 48.0 °F 30.13 in SSW 3.5 mph 3.5 mph 36 % 0.00 in
12:21 76.8 °F 49.3 °F 30.12 in NW 1.0 mph 1.0 mph 38 % 0.00 in
12:26 76.4 °F 48.2 °F 30.12 in NNW 1.0 mph 1.0 mph 37 % 0.00 in
12:31 76.2 °F 48.7 °F 30.12 in Calm     38 % 0.00 in
12:36 76.0 °F 48.6 °F 30.12 in NW 1.2 mph   38 % 0.00 in
12:41 76.0 °F 49.2 °F 30.12 in Calm     39 % 0.00 in
12:46 76.2 °F 48.0 °F 30.12 in WNW 1.2 mph 1.2 mph 37 % 0.00 in
12:51 76.4 °F 47.5 °F 30.11 in NW 1.2 mph 1.2 mph 36 % 0.00 in
12:56 76.8 °F 49.3 °F 30.11 in WSW 1.0 mph 1.0 mph 38 % 0.00 in
13:01 77.7 °F 49.3 °F 30.11 in SE 1.0 mph 1.0 mph 37 % 0.00 in
13:06 77.5 °F 47.7 °F 30.11 in NW 1.2 mph 1.2 mph 35 % 0.00 in
13:11 77.6 °F 48.5 °F 30.10 in NW 1.0 mph 1.0 mph 36 % 0.00 in
13:16 77.7 °F 49.3 °F 30.10 in WNW 1.0 mph 1.0 mph 37 % 0.00 in
13:21 77.5 °F 48.4 °F 30.10 in West 1.2 mph 1.2 mph 36 % 0.00 in
13:26 77.7 °F 48.6 °F 30.09 in NW 1.2 mph 1.2 mph 36 % 0.00 in
13:32 78.2 °F 48.3 °F 30.09 in WNW 2.3 mph 2.3 mph 35 % 0.00 in
13:37 78.7 °F 47.2 °F 30.09 in North 2.3 mph 2.3 mph 33 % 0.00 in
13:42 79.3 °F 48.5 °F 30.09 in NW 1.0 mph 1.0 mph 34 % 0.00 in
13:47 79.9 °F 46.6 °F 30.08 in NW 1.2 mph   31 % 0.00 in
13:52 80.2 °F 46.8 °F 30.08 in NNE 1.2 mph 1.2 mph 31 % 0.00 in
13:57 80.7 °F 48.9 °F 30.08 in NE 1.2 mph 1.2 mph 33 % 0.00 in
14:02 81.2 °F 47.7 °F 30.08 in NW 2.3 mph 2.3 mph 31 % 0.00 in
14:07 81.2 °F 48.5 °F 30.07 in West 1.2 mph 1.2 mph 32 % 0.00 in
14:12 81.8 °F 48.2 °F 30.07 in WNW 1.2 mph 1.2 mph 31 % 0.00 in
14:17 82.1 °F 47.6 °F 30.07 in NNW 1.2 mph   30 % 0.00 in
14:22 81.8 °F 46.4 °F 30.07 in NNW 1.2 mph   29 % 0.00 in
14:27 82.0 °F 47.5 °F 30.07 in NW 1.2 mph 1.2 mph 30 % 0.00 in
14:32 82.2 °F 45.8 °F 30.06 in WSW 1.2 mph 1.2 mph 28 % 0.00 in
14:37 82.1 °F 44.8 °F 30.06 in WNW 2.3 mph 2.3 mph 27 % 0.00 in
14:42 82.0 °F 46.6 °F 30.06 in WNW 1.2 mph 1.2 mph 29 % 0.00 in
14:47 82.3 °F 47.8 °F 30.06 in NW 1.2 mph 1.2 mph 30 % 0.00 in
14:52 82.2 °F 46.8 °F 30.06 in WNW 1.2 mph 1.2 mph 29 % 0.00 in
14:57 82.1 °F 45.8 °F 30.06 in WSW 1.2 mph 1.2 mph 28 % 0.00 in
15:02 82.3 °F 45.9 °F 30.05 in NW 2.3 mph 2.3 mph 28 % 0.00 in
15:07 82.1 °F 46.7 °F 30.05 in NW 1.2 mph 1.2 mph 29 % 0.00 in
15:12 82.1 °F 45.8 °F 30.05 in South 1.2 mph   28 % 0.00 in
15:17 82.7 °F 47.2 °F 30.05 in Calm     29 % 0.00 in
15:22 82.9 °F 47.4 °F 30.05 in NW 3.5 mph 3.5 mph 29 % 0.00 in
15:23 82.9 °F 45.5 °F 30.05 in North 3.5 mph 3.5 mph 27 % 0.00 in
15:28 82.9 °F 45.5 °F 30.05 in NW 3.0 mph 3.0 mph 27 % 0.00 in
15:33 82.6 °F 45.2 °F 30.05 in NW 2.3 mph 2.3 mph 27 % 0.00 in
15:38 82.4 °F 46.9 °F 30.05 in NW 3.5 mph 3.5 mph 29 % 0.00 in
15:43 82.5 °F 46.1 °F 30.04 in NW 2.3 mph 2.3 mph 28 % 0.00 in
15:48 82.4 °F 46.0 °F 30.05 in NW 3.5 mph 3.5 mph 28 % 0.00 in
15:53 82.2 °F 44.9 °F 30.04 in West 2.3 mph 2.3 mph 27 % 0.00 in
15:58 82.0 °F 45.7 °F 30.04 in WNW 2.3 mph 2.3 mph 28 % 0.00 in
16:03 81.8 °F 44.5 °F 30.04 in WNW 3.0 mph 3.0 mph 27 % 0.00 in
16:08 81.7 °F 45.4 °F 30.03 in NW 1.2 mph 1.2 mph 28 % 0.00 in
16:13 81.7 °F 46.3 °F 30.04 in NW 1.2 mph 1.2 mph 29 % 0.00 in
16:18 81.7 °F 44.5 °F 30.04 in NNW 1.2 mph   27 % 0.00 in
16:19 81.6 °F 45.3 °F 30.03 in NNW 1.2 mph 1.2 mph 28 % 0.00 in
16:24 81.5 °F 46.2 °F 30.03 in WNW 1.2 mph 1.2 mph 29 % 0.00 in
16:29 81.4 °F 46.1 °F 30.03 in NW 1.2 mph 1.2 mph 29 % 0.00 in
16:34 81.3 °F 44.1 °F 30.03 in NW 2.3 mph 2.3 mph 27 % 0.00 in
16:39 81.3 °F 46.0 °F 30.03 in WNW 1.2 mph 1.2 mph 29 % 0.00 in
16:44 81.2 °F 47.7 °F 30.03 in NW 1.2 mph 1.2 mph 31 % 0.00 in
16:49 81.0 °F 47.5 °F 30.03 in West 2.3 mph 2.3 mph 31 % 0.00 in
16:54 80.8 °F 47.3 °F 30.03 in North 1.2 mph 1.2 mph 31 % 0.00 in
16:59 80.6 °F 48.0 °F 30.03 in Calm     32 % 0.00 in
17:04 80.3 °F 46.9 °F 30.03 in WNW 1.2 mph 1.2 mph 31 % 0.00 in
17:09 80.2 °F 47.7 °F 30.03 in NW 1.2 mph 1.2 mph 32 % 0.00 in
17:14 79.9 °F 47.4 °F 30.03 in Calm     32 % 0.00 in
17:19 79.6 °F 48.0 °F 30.02 in Calm     33 % 0.00 in
17:24 79.3 °F 48.5 °F 30.02 in WNW 1.2 mph   34 % 0.00 in
17:29 78.9 °F 48.9 °F 30.02 in Calm     35 % 0.00 in
17:34 78.5 °F 47.8 °F 30.02 in Calm   0.1 mph 34 % 0.00 in
17:39 78.1 °F 47.4 °F 30.02 in WNW 1.2 mph   34 % 0.00 in
17:44 77.6 °F 48.5 °F 30.02 in Calm     36 % 0.00 in
17:49 77.0 °F 48.7 °F 30.02 in Calm     37 % 0.00 in
17:54 76.5 °F 47.6 °F 30.02 in Calm     36 % 0.00 in
17:59 76.0 °F 47.8 °F 30.02 in Calm     37 % 0.00 in
18:04 75.2 °F 49.2 °F 30.02 in Calm     40 % 0.00 in
18:10 74.4 °F 47.8 °F 30.02 in Calm     39 % 0.00 in
18:15 73.8 °F 48.0 °F 30.02 in Calm     40 % 0.00 in
18:20 73.2 °F 47.4 °F 30.02 in Calm     40 % 0.00 in
18:25 73.0 °F 48.5 °F 30.02 in Calm     42 % 0.00 in
18:30 72.4 °F 48.6 °F 30.02 in Calm     43 % 0.00 in
18:35 71.5 °F 48.4 °F 30.02 in Calm     44 % 0.00 in
18:40 70.8 °F 49.6 °F 30.02 in Calm     47 % 0.00 in
18:45 70.2 °F 48.4 °F 30.03 in Calm     46 % 0.00 in
18:50 69.4 °F 49.4 °F 30.02 in Calm     49 % 0.00 in
18:55 68.6 °F 49.2 °F 30.02 in Calm     50 % 0.00 in
19:00 67.9 °F 48.0 °F 30.02 in Calm     49 % 0.00 in
19:05 67.5 °F 48.7 °F 30.03 in Calm     51 % 0.00 in
19:10 67.1 °F 48.4 °F 30.03 in Calm     51 % 0.00 in
19:15 66.5 °F 48.8 °F 30.03 in Calm     53 % 0.00 in
19:20 65.9 °F 49.3 °F 30.03 in Calm     55 % 0.00 in
19:25 65.6 °F 48.5 °F 30.03 in Calm     54 % 0.00 in
19:30 65.3 °F 49.2 °F 30.03 in Calm     56 % 0.00 in
19:35 64.9 °F 49.3 °F 30.04 in Calm     57 % 0.00 in
19:40 64.3 °F 49.7 °F 30.04 in Calm     59 % 0.00 in
19:45 63.8 °F 50.1 °F 30.04 in Calm     61 % 0.00 in
19:50 63.5 °F 50.2 °F 30.04 in Calm     62 % 0.00 in
19:55 63.1 °F 49.4 °F 30.04 in Calm     61 % 0.00 in
20:00 62.9 °F 49.7 °F 30.04 in Calm     62 % 0.00 in
20:05 63.0 °F 48.9 °F 30.04 in Calm     60 % 0.00 in
20:11 63.1 °F 49.4 °F 30.04 in Calm     61 % 0.00 in
20:17 62.8 °F 49.1 °F 30.04 in Calm     61 % 0.00 in
20:20 62.5 °F 49.3 °F 30.04 in Calm     62 % 0.00 in
20:22 62.6 °F 49.8 °F 30.04 in Calm     63 % 0.00 in
20:26 62.4 °F 49.2 °F 30.04 in Calm     62 % 0.00 in
20:27 62.4 °F 49.6 °F 30.04 in Calm     63 % 0.00 in
20:29 62.2 °F 49.4 °F 30.04 in Calm     63 % 0.00 in
20:49 60.9 °F 51.4 °F 30.05 in Calm     71 % 0.00 in
20:54 60.3 °F 51.2 °F 30.05 in Calm     72 % 0.00 in
20:59 59.7 °F 50.7 °F 30.05 in Calm     72 % 0.00 in
21:04 59.3 °F 50.3 °F 30.05 in Calm     72 % 0.00 in
21:09 59.0 °F 50.4 °F 30.06 in Calm     73 % 0.00 in
21:14 58.8 °F 50.2 °F 30.06 in Calm     73 % 0.00 in
21:19 58.6 °F 50.0 °F 30.06 in Calm     73 % 0.00 in
21:24 58.5 °F 49.9 °F 30.06 in Calm     73 % 0.00 in
21:29 58.4 °F 49.8 °F 30.06 in Calm     73 % 0.00 in
21:34 58.3 °F 50.0 °F 30.06 in Calm     74 % 0.00 in
21:39 58.2 °F 50.0 °F 30.06 in Calm     74 % 0.00 in
21:44 57.9 °F 50.0 °F 30.06 in Calm     75 % 0.00 in
21:49 57.7 °F 49.8 °F 30.06 in Calm     75 % 0.00 in
21:54 57.5 °F 50.0 °F 30.06 in Calm     76 % 0.00 in
21:59 57.3 °F 50.1 °F 30.06 in Calm     77 % 0.00 in
22:04 57.2 °F 50.1 °F 30.06 in Calm     77 % 0.00 in
22:09 57.0 °F 50.2 °F 30.07 in Calm     78 % 0.00 in
22:14 56.5 °F 49.7 °F 30.07 in Calm     78 % 0.00 in
22:15 56.4 °F 49.6 °F 30.07 in Calm     78 % 0.00 in
22:20 56.3 °F 49.5 °F 30.07 in Calm     78 % 0.00 in
22:25 56.2 °F 49.8 °F 30.07 in Calm     79 % 0.00 in
22:30 55.9 °F 49.5 °F 30.07 in Calm     79 % 0.00 in
22:35 55.7 °F 49.6 °F 30.08 in Calm     80 % 0.00 in
22:40 55.9 °F 49.8 °F 30.08 in Calm     80 % 0.00 in
22:45 55.7 °F 49.6 °F 30.08 in Calm     80 % 0.00 in
22:50 55.7 °F 49.3 °F 30.08 in Calm     79 % 0.00 in
22:55 55.8 °F 49.4 °F 30.08 in Calm     79 % 0.00 in
23:00 56.0 °F 49.2 °F 30.08 in Calm     78 % 0.00 in
23:05 56.3 °F 48.8 °F 30.08 in Calm     76 % 0.00 in
23:10 56.3 °F 48.5 °F 30.08 in Calm     75 % 0.00 in
23:15 56.0 °F 48.2 °F 30.08 in Calm     75 % 0.00 in
23:20 55.7 °F 48.2 °F 30.08 in Calm     76 % 0.00 in
23:25 55.8 °F 48.0 °F 30.08 in Calm     75 % 0.00 in
23:30 56.3 °F 48.1 °F 30.08 in Calm     74 % 0.00 in
23:36 56.7 °F 48.5 °F 30.08 in Calm     74 % 0.00 in
23:41 57.2 °F 47.9 °F 30.08 in Calm     71 % 0.00 in
23:46 57.9 °F 47.8 °F 30.08 in WNW 1.2 mph 1.2 mph 69 % 0.00 in
23:51 58.3 °F 47.4 °F 30.08 in Calm     67 % 0.00 in
23:56 58.3 °F 47.4 °F 30.08 in Calm     67 % 0.00 in
Park Place, Exeter, Tulare County, California, USA
Compliments of Weather Underground - 2.75 mb